sensor_id;sensor_type;location;lat;lon;timestamp;P1;durP1;ratioP1;P2;durP2;ratioP2
83263;SDS011;73156;50.988;11.034;2023-12-22T00:00:15;17.00;;;11.00;;
83263;SDS011;73156;50.988;11.034;2023-12-22T00:02:41;18.17;;;10.68;;
83263;SDS011;73156;50.988;11.034;2023-12-22T00:05:06;16.52;;;11.10;;
83263;SDS011;73156;50.988;11.034;2023-12-22T00:07:32;16.85;;;10.95;;
83263;SDS011;73156;50.988;11.034;2023-12-22T00:09:57;16.87;;;10.70;;
83263;SDS011;73156;50.988;11.034;2023-12-22T00:12:22;18.57;;;11.17;;
83263;SDS011;73156;50.988;11.034;2023-12-22T00:14:48;18.25;;;11.35;;
83263;SDS011;73156;50.988;11.034;2023-12-22T00:17:13;17.63;;;9.93;;
83263;SDS011;73156;50.988;11.034;2023-12-22T00:19:38;18.23;;;12.07;;
83263;SDS011;73156;50.988;11.034;2023-12-22T00:22:03;16.70;;;10.60;;
83263;SDS011;73156;50.988;11.034;2023-12-22T00:24:29;18.15;;;11.55;;
83263;SDS011;73156;50.988;11.034;2023-12-22T00:26:54;16.48;;;10.90;;
83263;SDS011;73156;50.988;11.034;2023-12-22T00:29:20;17.25;;;10.88;;
83263;SDS011;73156;50.988;11.034;2023-12-22T00:31:45;17.42;;;11.20;;
83263;SDS011;73156;50.988;11.034;2023-12-22T00:34:10;18.42;;;11.10;;
83263;SDS011;73156;50.988;11.034;2023-12-22T00:36:36;20.57;;;12.63;;
83263;SDS011;73156;50.988;11.034;2023-12-22T00:39:01;18.38;;;11.60;;
83263;SDS011;73156;50.988;11.034;2023-12-22T00:41:26;17.60;;;10.48;;
83263;SDS011;73156;50.988;11.034;2023-12-22T00:43:52;18.37;;;11.43;;
83263;SDS011;73156;50.988;11.034;2023-12-22T00:46:17;19.03;;;11.23;;
83263;SDS011;73156;50.988;11.034;2023-12-22T00:48:42;17.98;;;11.40;;
83263;SDS011;73156;50.988;11.034;2023-12-22T00:51:07;18.47;;;11.43;;
83263;SDS011;73156;50.988;11.034;2023-12-22T00:53:33;16.73;;;11.13;;
83263;SDS011;73156;50.988;11.034;2023-12-22T00:55:59;19.27;;;11.50;;
83263;SDS011;73156;50.988;11.034;2023-12-22T00:58:25;17.83;;;11.75;;
83263;SDS011;73156;50.988;11.034;2023-12-22T01:00:51;17.80;;;11.45;;
83263;SDS011;73156;50.988;11.034;2023-12-22T01:03:16;17.60;;;10.63;;
83263;SDS011;73156;50.988;11.034;2023-12-22T01:05:41;15.45;;;10.63;;
83263;SDS011;73156;50.988;11.034;2023-12-22T01:08:06;21.10;;;11.80;;
83263;SDS011;73156;50.988;11.034;2023-12-22T01:10:32;17.53;;;10.60;;
83263;SDS011;73156;50.988;11.034;2023-12-22T01:12:57;18.40;;;11.37;;
83263;SDS011;73156;50.988;11.034;2023-12-22T01:15:22;18.17;;;10.63;;
83263;SDS011;73156;50.988;11.034;2023-12-22T01:17:48;19.43;;;11.63;;
83263;SDS011;73156;50.988;11.034;2023-12-22T01:20:13;17.40;;;10.73;;
83263;SDS011;73156;50.988;11.034;2023-12-22T01:22:38;18.17;;;11.60;;
83263;SDS011;73156;50.988;11.034;2023-12-22T01:25:04;19.27;;;11.35;;
83263;SDS011;73156;50.988;11.034;2023-12-22T01:27:30;16.48;;;10.43;;
83263;SDS011;73156;50.988;11.034;2023-12-22T01:29:56;16.33;;;10.57;;
83263;SDS011;73156;50.988;11.034;2023-12-22T01:32:21;18.15;;;11.13;;
83263;SDS011;73156;50.988;11.034;2023-12-22T01:34:46;20.30;;;11.50;;
83263;SDS011;73156;50.988;11.034;2023-12-22T01:37:12;18.85;;;12.02;;
83263;SDS011;73156;50.988;11.034;2023-12-22T01:39:37;16.40;;;10.40;;
83263;SDS011;73156;50.988;11.034;2023-12-22T01:42:02;19.47;;;11.47;;
83263;SDS011;73156;50.988;11.034;2023-12-22T01:44:28;18.52;;;11.18;;
83263;SDS011;73156;50.988;11.034;2023-12-22T01:46:53;18.67;;;11.30;;
83263;SDS011;73156;50.988;11.034;2023-12-22T01:49:18;17.40;;;11.45;;
83263;SDS011;73156;50.988;11.034;2023-12-22T01:51:46;17.88;;;11.57;;
83263;SDS011;73156;50.988;11.034;2023-12-22T01:54:11;19.02;;;10.50;;
83263;SDS011;73156;50.988;11.034;2023-12-22T01:56:39;16.83;;;10.77;;
83263;SDS011;73156;50.988;11.034;2023-12-22T01:59:04;19.20;;;11.43;;
83263;SDS011;73156;50.988;11.034;2023-12-22T02:01:30;20.13;;;12.15;;
83263;SDS011;73156;50.988;11.034;2023-12-22T02:03:56;18.83;;;10.90;;
83263;SDS011;73156;50.988;11.034;2023-12-22T02:06:23;17.52;;;11.70;;
83263;SDS011;73156;50.988;11.034;2023-12-22T02:08:49;18.92;;;11.35;;
83263;SDS011;73156;50.988;11.034;2023-12-22T02:11:15;17.33;;;11.20;;
83263;SDS011;73156;50.988;11.034;2023-12-22T02:13:44;19.08;;;11.88;;
83263;SDS011;73156;50.988;11.034;2023-12-22T02:16:11;19.45;;;11.52;;
83263;SDS011;73156;50.988;11.034;2023-12-22T02:18:46;21.58;;;12.07;;
83263;SDS011;73156;50.988;11.034;2023-12-22T02:21:13;17.33;;;11.35;;
83263;SDS011;73156;50.988;11.034;2023-12-22T02:23:38;19.50;;;10.90;;
83263;SDS011;73156;50.988;11.034;2023-12-22T02:26:10;19.17;;;11.50;;
83263;SDS011;73156;50.988;11.034;2023-12-22T02:28:42;19.05;;;12.18;;
83263;SDS011;73156;50.988;11.034;2023-12-22T02:31:14;18.80;;;11.60;;
83263;SDS011;73156;50.988;11.034;2023-12-22T02:33:42;19.75;;;12.05;;
83263;SDS011;73156;50.988;11.034;2023-12-22T02:36:09;17.85;;;11.30;;
83263;SDS011;73156;50.988;11.034;2023-12-22T02:38:35;19.92;;;12.75;;
83263;SDS011;73156;50.988;11.034;2023-12-22T02:41:02;16.88;;;11.02;;
83263;SDS011;73156;50.988;11.034;2023-12-22T02:43:28;18.25;;;11.55;;
83263;SDS011;73156;50.988;11.034;2023-12-22T02:45:54;16.75;;;11.02;;
83263;SDS011;73156;50.988;11.034;2023-12-22T02:48:19;17.10;;;11.30;;
83263;SDS011;73156;50.988;11.034;2023-12-22T02:50:44;18.47;;;11.30;;
83263;SDS011;73156;50.988;11.034;2023-12-22T02:53:09;19.13;;;11.45;;
83263;SDS011;73156;50.988;11.034;2023-12-22T02:55:35;20.95;;;11.45;;
83263;SDS011;73156;50.988;11.034;2023-12-22T02:58:00;17.85;;;11.55;;
83263;SDS011;73156;50.988;11.034;2023-12-22T03:00:25;18.43;;;11.50;;
83263;SDS011;73156;50.988;11.034;2023-12-22T03:02:51;20.10;;;11.90;;
83263;SDS011;73156;50.988;11.034;2023-12-22T03:05:16;18.90;;;11.00;;
83263;SDS011;73156;50.988;11.034;2023-12-22T03:07:41;20.00;;;11.73;;
83263;SDS011;73156;50.988;11.034;2023-12-22T03:10:06;20.33;;;12.00;;
83263;SDS011;73156;50.988;11.034;2023-12-22T03:12:32;16.45;;;10.70;;
83263;SDS011;73156;50.988;11.034;2023-12-22T03:14:57;20.07;;;11.63;;
83263;SDS011;73156;50.988;11.034;2023-12-22T03:17:22;15.35;;;9.85;;
83263;SDS011;73156;50.988;11.034;2023-12-22T03:19:48;17.80;;;10.43;;
83263;SDS011;73156;50.988;11.034;2023-12-22T03:22:13;18.37;;;10.13;;
83263;SDS011;73156;50.988;11.034;2023-12-22T03:24:38;18.15;;;11.63;;
83263;SDS011;73156;50.988;11.034;2023-12-22T03:27:04;17.00;;;10.90;;
83263;SDS011;73156;50.988;11.034;2023-12-22T03:29:29;17.05;;;10.60;;
83263;SDS011;73156;50.988;11.034;2023-12-22T03:31:54;16.15;;;9.60;;
83263;SDS011;73156;50.988;11.034;2023-12-22T03:34:20;19.00;;;10.47;;
83263;SDS011;73156;50.988;11.034;2023-12-22T03:36:45;15.32;;;10.30;;
83263;SDS011;73156;50.988;11.034;2023-12-22T03:39:13;16.10;;;9.63;;
83263;SDS011;73156;50.988;11.034;2023-12-22T03:41:39;15.20;;;9.75;;
83263;SDS011;73156;50.988;11.034;2023-12-22T03:44:04;15.53;;;9.50;;
83263;SDS011;73156;50.988;11.034;2023-12-22T03:46:30;15.13;;;9.50;;
83263;SDS011;73156;50.988;11.034;2023-12-22T03:48:55;16.65;;;9.65;;
83263;SDS011;73156;50.988;11.034;2023-12-22T03:51:20;15.57;;;9.77;;
83263;SDS011;73156;50.988;11.034;2023-12-22T03:53:46;16.80;;;9.73;;
83263;SDS011;73156;50.988;11.034;2023-12-22T03:56:11;14.00;;;8.83;;
83263;SDS011;73156;50.988;11.034;2023-12-22T03:58:36;15.48;;;9.15;;
83263;SDS011;73156;50.988;11.034;2023-12-22T04:01:02;15.77;;;9.43;;
83263;SDS011;73156;50.988;11.034;2023-12-22T04:03:28;16.27;;;9.50;;
83263;SDS011;73156;50.988;11.034;2023-12-22T04:05:53;15.50;;;9.60;;
83263;SDS011;73156;50.988;11.034;2023-12-22T04:08:18;13.77;;;8.77;;
83263;SDS011;73156;50.988;11.034;2023-12-22T04:10:45;16.80;;;9.15;;
83263;SDS011;73156;50.988;11.034;2023-12-22T04:13:10;14.93;;;9.35;;
83263;SDS011;73156;50.988;11.034;2023-12-22T04:15:36;15.80;;;9.20;;
83263;SDS011;73156;50.988;11.034;2023-12-22T04:18:02;16.67;;;9.13;;
83263;SDS011;73156;50.988;11.034;2023-12-22T04:20:27;15.32;;;8.88;;
83263;SDS011;73156;50.988;11.034;2023-12-22T04:22:52;13.50;;;8.77;;
83263;SDS011;73156;50.988;11.034;2023-12-22T04:25:17;15.23;;;8.30;;
83263;SDS011;73156;50.988;11.034;2023-12-22T04:27:43;13.20;;;8.20;;
83263;SDS011;73156;50.988;11.034;2023-12-22T04:30:08;13.75;;;8.40;;
83263;SDS011;73156;50.988;11.034;2023-12-22T04:32:34;13.95;;;8.07;;
83263;SDS011;73156;50.988;11.034;2023-12-22T04:34:59;12.63;;;7.50;;
83263;SDS011;73156;50.988;11.034;2023-12-22T04:37:25;14.60;;;8.80;;
83263;SDS011;73156;50.988;11.034;2023-12-22T04:39:50;13.60;;;8.07;;
83263;SDS011;73156;50.988;11.034;2023-12-22T04:42:15;13.27;;;8.10;;
83263;SDS011;73156;50.988;11.034;2023-12-22T04:44:40;12.67;;;7.80;;
83263;SDS011;73156;50.988;11.034;2023-12-22T04:47:06;12.38;;;8.40;;
83263;SDS011;73156;50.988;11.034;2023-12-22T04:49:31;12.15;;;7.68;;
83263;SDS011;73156;50.988;11.034;2023-12-22T04:51:56;12.43;;;7.63;;
83263;SDS011;73156;50.988;11.034;2023-12-22T04:54:22;12.82;;;7.15;;
83263;SDS011;73156;50.988;11.034;2023-12-22T04:56:47;11.60;;;6.83;;
83263;SDS011;73156;50.988;11.034;2023-12-22T04:59:12;12.77;;;7.50;;
83263;SDS011;73156;50.988;11.034;2023-12-22T05:01:37;11.30;;;7.00;;
83263;SDS011;73156;50.988;11.034;2023-12-22T05:04:03;13.37;;;7.10;;
83263;SDS011;73156;50.988;11.034;2023-12-22T05:06:28;11.43;;;7.38;;
83263;SDS011;73156;50.988;11.034;2023-12-22T05:08:56;12.05;;;7.07;;
83263;SDS011;73156;50.988;11.034;2023-12-22T05:11:21;11.90;;;7.53;;
83263;SDS011;73156;50.988;11.034;2023-12-22T05:13:47;11.90;;;6.93;;
83263;SDS011;73156;50.988;11.034;2023-12-22T05:16:13;11.55;;;7.20;;
83263;SDS011;73156;50.988;11.034;2023-12-22T05:18:38;10.23;;;6.30;;
83263;SDS011;73156;50.988;11.034;2023-12-22T05:21:04;11.13;;;6.43;;
83263;SDS011;73156;50.988;11.034;2023-12-22T05:23:29;11.23;;;6.57;;
83263;SDS011;73156;50.988;11.034;2023-12-22T05:25:55;9.40;;;6.10;;
83263;SDS011;73156;50.988;11.034;2023-12-22T05:28:20;12.17;;;6.60;;
83263;SDS011;73156;50.988;11.034;2023-12-22T05:30:45;11.50;;;6.40;;
83263;SDS011;73156;50.988;11.034;2023-12-22T05:33:12;10.90;;;6.00;;
83263;SDS011;73156;50.988;11.034;2023-12-22T05:35:37;10.73;;;6.20;;
83263;SDS011;73156;50.988;11.034;2023-12-22T05:38:02;11.13;;;6.17;;
83263;SDS011;73156;50.988;11.034;2023-12-22T05:40:27;10.80;;;6.20;;
83263;SDS011;73156;50.988;11.034;2023-12-22T05:42:53;9.43;;;5.93;;
83263;SDS011;73156;50.988;11.034;2023-12-22T05:45:18;9.73;;;5.83;;
83263;SDS011;73156;50.988;11.034;2023-12-22T05:47:43;11.07;;;5.95;;
83263;SDS011;73156;50.988;11.034;2023-12-22T05:50:09;10.13;;;5.77;;
83263;SDS011;73156;50.988;11.034;2023-12-22T05:52:35;7.82;;;5.18;;
83263;SDS011;73156;50.988;11.034;2023-12-22T05:55:01;10.43;;;5.90;;
83263;SDS011;73156;50.988;11.034;2023-12-22T05:57:26;7.87;;;5.00;;
83263;SDS011;73156;50.988;11.034;2023-12-22T05:59:51;11.27;;;6.27;;
83263;SDS011;73156;50.988;11.034;2023-12-22T06:02:17;9.50;;;5.78;;
83263;SDS011;73156;50.988;11.034;2023-12-22T06:04:42;9.83;;;5.30;;
83263;SDS011;73156;50.988;11.034;2023-12-22T06:07:08;10.13;;;5.75;;
83263;SDS011;73156;50.988;11.034;2023-12-22T06:09:34;8.20;;;4.70;;
83263;SDS011;73156;50.988;11.034;2023-12-22T06:11:59;10.83;;;5.87;;
83263;SDS011;73156;50.988;11.034;2023-12-22T06:14:25;9.90;;;4.97;;
83263;SDS011;73156;50.988;11.034;2023-12-22T06:16:50;9.00;;;5.07;;
83263;SDS011;73156;50.988;11.034;2023-12-22T06:19:16;8.32;;;4.95;;
83263;SDS011;73156;50.988;11.034;2023-12-22T06:21:41;8.60;;;5.32;;
83263;SDS011;73156;50.988;11.034;2023-12-22T06:24:07;8.55;;;4.45;;
83263;SDS011;73156;50.988;11.034;2023-12-22T06:26:33;9.23;;;5.43;;
83263;SDS011;73156;50.988;11.034;2023-12-22T06:28:58;8.13;;;4.93;;
83263;SDS011;73156;50.988;11.034;2023-12-22T06:31:23;8.65;;;4.80;;
83263;SDS011;73156;50.988;11.034;2023-12-22T06:33:49;8.13;;;4.27;;
83263;SDS011;73156;50.988;11.034;2023-12-22T06:36:22;8.32;;;4.43;;
83263;SDS011;73156;50.988;11.034;2023-12-22T06:38:49;9.45;;;4.53;;
83263;SDS011;73156;50.988;11.034;2023-12-22T06:41:21;8.70;;;4.50;;
83263;SDS011;73156;50.988;11.034;2023-12-22T06:43:54;8.48;;;4.45;;
83263;SDS011;73156;50.988;11.034;2023-12-22T06:46:20;8.35;;;4.47;;
83263;SDS011;73156;50.988;11.034;2023-12-22T06:48:47;8.82;;;4.38;;
83263;SDS011;73156;50.988;11.034;2023-12-22T06:51:19;8.88;;;4.68;;
83263;SDS011;73156;50.988;11.034;2023-12-22T06:53:45;7.25;;;4.43;;
83263;SDS011;73156;50.988;11.034;2023-12-22T06:56:30;7.63;;;3.83;;
83263;SDS011;73156;50.988;11.034;2023-12-22T06:58:56;6.63;;;4.22;;
83263;SDS011;73156;50.988;11.034;2023-12-22T07:01:27;8.25;;;4.32;;
83263;SDS011;73156;50.988;11.034;2023-12-22T07:06:22;7.07;;;3.97;;
83263;SDS011;73156;50.988;11.034;2023-12-22T07:08:56;8.05;;;4.18;;
83263;SDS011;73156;50.988;11.034;2023-12-22T07:11:24;7.55;;;4.30;;
83263;SDS011;73156;50.988;11.034;2023-12-22T07:13:49;7.13;;;4.10;;
83263;SDS011;73156;50.988;11.034;2023-12-22T07:16:15;8.57;;;4.23;;
83263;SDS011;73156;50.988;11.034;2023-12-22T07:18:41;7.07;;;4.43;;
83263;SDS011;73156;50.988;11.034;2023-12-22T07:21:06;9.43;;;5.22;;
83263;SDS011;73156;50.988;11.034;2023-12-22T07:23:32;8.40;;;4.97;;
83263;SDS011;73156;50.988;11.034;2023-12-22T07:25:57;6.70;;;4.72;;
83263;SDS011;73156;50.988;11.034;2023-12-22T07:28:23;9.57;;;4.55;;
83263;SDS011;73156;50.988;11.034;2023-12-22T07:30:48;11.87;;;5.50;;
83263;SDS011;73156;50.988;11.034;2023-12-22T07:33:13;11.27;;;5.53;;
83263;SDS011;73156;50.988;11.034;2023-12-22T07:35:39;16.17;;;6.10;;
83263;SDS011;73156;50.988;11.034;2023-12-22T07:38:04;14.23;;;5.60;;
83263;SDS011;73156;50.988;11.034;2023-12-22T07:40:29;17.52;;;6.22;;
83263;SDS011;73156;50.988;11.034;2023-12-22T07:42:57;15.52;;;6.55;;
83263;SDS011;73156;50.988;11.034;2023-12-22T07:45:23;20.67;;;6.90;;
83263;SDS011;73156;50.988;11.034;2023-12-22T07:47:48;19.77;;;7.00;;
83263;SDS011;73156;50.988;11.034;2023-12-22T07:50:14;22.35;;;8.02;;
83263;SDS011;73156;50.988;11.034;2023-12-22T07:52:39;22.38;;;8.35;;
83263;SDS011;73156;50.988;11.034;2023-12-22T07:55:08;22.33;;;7.22;;
83263;SDS011;73156;50.988;11.034;2023-12-22T07:57:37;28.05;;;8.20;;
83263;SDS011;73156;50.988;11.034;2023-12-22T08:00:04;38.03;;;9.07;;
83263;SDS011;73156;50.988;11.034;2023-12-22T08:02:29;32.17;;;8.43;;
83263;SDS011;73156;50.988;11.034;2023-12-22T08:04:55;34.27;;;11.20;;
83263;SDS011;73156;50.988;11.034;2023-12-22T08:07:20;34.38;;;10.55;;
83263;SDS011;73156;50.988;11.034;2023-12-22T08:09:46;31.70;;;9.93;;
83263;SDS011;73156;50.988;11.034;2023-12-22T08:12:11;36.33;;;10.60;;
83263;SDS011;73156;50.988;11.034;2023-12-22T08:14:36;30.67;;;10.50;;
83263;SDS011;73156;50.988;11.034;2023-12-22T08:17:01;36.97;;;10.93;;
83263;SDS011;73156;50.988;11.034;2023-12-22T08:19:27;24.13;;;9.77;;
83263;SDS011;73156;50.988;11.034;2023-12-22T08:21:52;23.88;;;10.77;;
83263;SDS011;73156;50.988;11.034;2023-12-22T08:24:18;30.75;;;10.32;;
83263;SDS011;73156;50.988;11.034;2023-12-22T08:26:44;37.23;;;11.27;;
83263;SDS011;73156;50.988;11.034;2023-12-22T08:29:09;35.20;;;9.67;;
83263;SDS011;73156;50.988;11.034;2023-12-22T08:31:34;32.58;;;9.75;;
83263;SDS011;73156;50.988;11.034;2023-12-22T08:34:00;29.45;;;10.88;;
83263;SDS011;73156;50.988;11.034;2023-12-22T08:36:25;25.87;;;8.77;;
83263;SDS011;73156;50.988;11.034;2023-12-22T08:38:50;29.55;;;8.60;;
83263;SDS011;73156;50.988;11.034;2023-12-22T08:41:15;30.23;;;9.53;;
83263;SDS011;73156;50.988;11.034;2023-12-22T08:43:41;26.35;;;9.73;;
83263;SDS011;73156;50.988;11.034;2023-12-22T08:46:07;30.38;;;9.48;;
83263;SDS011;73156;50.988;11.034;2023-12-22T08:48:34;28.85;;;9.77;;
83263;SDS011;73156;50.988;11.034;2023-12-22T08:50:59;26.27;;;9.63;;
83263;SDS011;73156;50.988;11.034;2023-12-22T08:53:25;33.60;;;9.63;;
83263;SDS011;73156;50.988;11.034;2023-12-22T08:55:50;30.40;;;10.30;;
83263;SDS011;73156;50.988;11.034;2023-12-22T08:58:16;28.23;;;9.20;;
83263;SDS011;73156;50.988;11.034;2023-12-22T09:00:41;26.00;;;9.75;;
83263;SDS011;73156;50.988;11.034;2023-12-22T09:03:06;25.65;;;10.02;;
83263;SDS011;73156;50.988;11.034;2023-12-22T09:05:31;25.10;;;9.47;;
83263;SDS011;73156;50.988;11.034;2023-12-22T09:07:57;28.45;;;9.90;;
83263;SDS011;73156;50.988;11.034;2023-12-22T09:10:24;21.07;;;8.90;;
83263;SDS011;73156;50.988;11.034;2023-12-22T09:15:16;26.55;;;9.50;;
83263;SDS011;73156;50.988;11.034;2023-12-22T09:17:41;29.57;;;10.93;;
83263;SDS011;73156;50.988;11.034;2023-12-22T09:20:07;23.05;;;9.07;;
83263;SDS011;73156;50.988;11.034;2023-12-22T09:22:33;31.40;;;9.73;;
83263;SDS011;73156;50.988;11.034;2023-12-22T09:24:58;21.40;;;8.77;;
83263;SDS011;73156;50.988;11.034;2023-12-22T09:27:23;20.67;;;8.77;;
83263;SDS011;73156;50.988;11.034;2023-12-22T09:29:48;20.80;;;8.40;;
83263;SDS011;73156;50.988;11.034;2023-12-22T09:32:14;23.80;;;8.03;;
83263;SDS011;73156;50.988;11.034;2023-12-22T09:34:39;22.83;;;9.18;;
83263;SDS011;73156;50.988;11.034;2023-12-22T09:37:05;21.55;;;8.57;;
83263;SDS011;73156;50.988;11.034;2023-12-22T09:39:30;22.48;;;9.27;;
83263;SDS011;73156;50.988;11.034;2023-12-22T09:41:55;23.77;;;9.80;;
83263;SDS011;73156;50.988;11.034;2023-12-22T09:44:21;21.53;;;9.00;;
83263;SDS011;73156;50.988;11.034;2023-12-22T09:46:49;18.38;;;8.48;;
83263;SDS011;73156;50.988;11.034;2023-12-22T09:49:17;20.05;;;8.48;;
83263;SDS011;73156;50.988;11.034;2023-12-22T09:51:44;21.55;;;8.57;;
83263;SDS011;73156;50.988;11.034;2023-12-22T09:54:09;23.60;;;9.45;;
83263;SDS011;73156;50.988;11.034;2023-12-22T09:56:35;22.17;;;10.32;;
83263;SDS011;73156;50.988;11.034;2023-12-22T09:59:06;23.27;;;8.80;;
83263;SDS011;73156;50.988;11.034;2023-12-22T10:01:34;19.27;;;8.50;;
83263;SDS011;73156;50.988;11.034;2023-12-22T10:04:01;22.88;;;8.48;;
83263;SDS011;73156;50.988;11.034;2023-12-22T10:06:27;21.67;;;8.45;;
83263;SDS011;73156;50.988;11.034;2023-12-22T10:08:52;19.17;;;8.30;;
83263;SDS011;73156;50.988;11.034;2023-12-22T10:11:19;19.02;;;8.98;;
83263;SDS011;73156;50.988;11.034;2023-12-22T10:13:45;19.65;;;8.40;;
83263;SDS011;73156;50.988;11.034;2023-12-22T10:16:12;21.45;;;8.23;;
83263;SDS011;73156;50.988;11.034;2023-12-22T10:18:38;25.38;;;9.52;;
83263;SDS011;73156;50.988;11.034;2023-12-22T10:21:03;19.10;;;8.43;;
83263;SDS011;73156;50.988;11.034;2023-12-22T10:23:28;22.10;;;8.25;;
83263;SDS011;73156;50.988;11.034;2023-12-22T10:25:54;17.75;;;8.52;;
83263;SDS011;73156;50.988;11.034;2023-12-22T10:28:22;15.77;;;8.35;;
83263;SDS011;73156;50.988;11.034;2023-12-22T10:30:49;20.25;;;9.80;;
83263;SDS011;73156;50.988;11.034;2023-12-22T10:33:15;18.80;;;8.57;;
83263;SDS011;73156;50.988;11.034;2023-12-22T10:35:41;21.52;;;9.57;;
83263;SDS011;73156;50.988;11.034;2023-12-22T10:38:06;23.42;;;8.75;;
83263;SDS011;73156;50.988;11.034;2023-12-22T10:40:32;18.90;;;8.38;;
83263;SDS011;73156;50.988;11.034;2023-12-22T10:42:58;19.77;;;8.00;;
83263;SDS011;73156;50.988;11.034;2023-12-22T10:45:24;22.20;;;9.30;;
83263;SDS011;73156;50.988;11.034;2023-12-22T10:47:49;20.60;;;9.43;;
83263;SDS011;73156;50.988;11.034;2023-12-22T10:50:18;20.25;;;8.40;;
83263;SDS011;73156;50.988;11.034;2023-12-22T10:52:48;17.38;;;8.40;;
83263;SDS011;73156;50.988;11.034;2023-12-22T10:55:15;18.67;;;8.90;;
83263;SDS011;73156;50.988;11.034;2023-12-22T10:57:41;21.70;;;8.63;;
83263;SDS011;73156;50.988;11.034;2023-12-22T11:00:06;22.65;;;9.35;;
83263;SDS011;73156;50.988;11.034;2023-12-22T11:02:33;18.02;;;9.05;;
83263;SDS011;73156;50.988;11.034;2023-12-22T11:05:02;16.83;;;8.63;;
83263;SDS011;73156;50.988;11.034;2023-12-22T11:07:35;18.90;;;9.10;;
83263;SDS011;73156;50.988;11.034;2023-12-22T11:10:02;20.52;;;8.90;;
83263;SDS011;73156;50.988;11.034;2023-12-22T11:14:56;18.15;;;8.77;;
83263;SDS011;73156;50.988;11.034;2023-12-22T11:17:23;18.92;;;8.45;;
83263;SDS011;73156;50.988;11.034;2023-12-22T11:19:54;18.23;;;8.77;;
83263;SDS011;73156;50.988;11.034;2023-12-22T11:22:21;20.33;;;9.45;;
83263;SDS011;73156;50.988;11.034;2023-12-22T11:24:47;20.20;;;9.55;;
83263;SDS011;73156;50.988;11.034;2023-12-22T11:27:17;18.45;;;8.65;;
83263;SDS011;73156;50.988;11.034;2023-12-22T11:29:45;18.13;;;9.32;;
83263;SDS011;73156;50.988;11.034;2023-12-22T11:32:13;17.20;;;9.13;;
83263;SDS011;73156;50.988;11.034;2023-12-22T11:34:40;16.92;;;9.65;;
83263;SDS011;73156;50.988;11.034;2023-12-22T11:37:08;19.00;;;9.98;;
83263;SDS011;73156;50.988;11.034;2023-12-22T11:39:35;16.77;;;8.85;;
83263;SDS011;73156;50.988;11.034;2023-12-22T11:42:01;16.60;;;9.20;;
83263;SDS011;73156;50.988;11.034;2023-12-22T11:44:28;17.15;;;8.82;;
83263;SDS011;73156;50.988;11.034;2023-12-22T11:47:04;21.25;;;8.75;;
83263;SDS011;73156;50.988;11.034;2023-12-22T11:49:33;17.40;;;8.70;;
83263;SDS011;73156;50.988;11.034;2023-12-22T11:52:08;17.52;;;9.15;;
83263;SDS011;73156;50.988;11.034;2023-12-22T11:54:44;16.58;;;8.70;;
83263;SDS011;73156;50.988;11.034;2023-12-22T11:57:32;17.52;;;8.85;;
83263;SDS011;73156;50.988;11.034;2023-12-22T12:02:33;17.42;;;8.68;;
83263;SDS011;73156;50.988;11.034;2023-12-22T12:05:00;16.95;;;9.07;;
83263;SDS011;73156;50.988;11.034;2023-12-22T12:07:37;17.45;;;9.48;;
83263;SDS011;73156;50.988;11.034;2023-12-22T12:10:06;19.08;;;9.38;;
83263;SDS011;73156;50.988;11.034;2023-12-22T12:12:35;17.00;;;9.05;;
83263;SDS011;73156;50.988;11.034;2023-12-22T12:15:08;16.48;;;9.00;;
83263;SDS011;73156;50.988;11.034;2023-12-22T12:17:43;16.65;;;9.23;;
83263;SDS011;73156;50.988;11.034;2023-12-22T12:20:09;17.13;;;8.63;;
83263;SDS011;73156;50.988;11.034;2023-12-22T12:22:36;16.50;;;8.95;;
83263;SDS011;73156;50.988;11.034;2023-12-22T12:25:06;15.32;;;8.45;;
83263;SDS011;73156;50.988;11.034;2023-12-22T12:27:34;14.88;;;8.40;;
83263;SDS011;73156;50.988;11.034;2023-12-22T12:30:06;19.15;;;9.30;;
83263;SDS011;73156;50.988;11.034;2023-12-22T12:32:34;14.88;;;8.80;;
83263;SDS011;73156;50.988;11.034;2023-12-22T12:35:00;16.10;;;8.82;;
83263;SDS011;73156;50.988;11.034;2023-12-22T12:37:26;16.65;;;9.35;;
83263;SDS011;73156;50.988;11.034;2023-12-22T12:39:51;16.80;;;9.15;;
83263;SDS011;73156;50.988;11.034;2023-12-22T12:42:23;16.88;;;9.18;;
83263;SDS011;73156;50.988;11.034;2023-12-22T12:44:49;16.25;;;9.38;;
83263;SDS011;73156;50.988;11.034;2023-12-22T12:47:17;15.73;;;9.13;;
83263;SDS011;73156;50.988;11.034;2023-12-22T12:49:43;16.95;;;9.70;;
83263;SDS011;73156;50.988;11.034;2023-12-22T12:52:14;14.80;;;8.93;;
83263;SDS011;73156;50.988;11.034;2023-12-22T12:54:40;16.05;;;8.70;;
83263;SDS011;73156;50.988;11.034;2023-12-22T12:57:06;18.38;;;9.68;;
83263;SDS011;73156;50.988;11.034;2023-12-22T12:59:31;15.88;;;9.00;;
83263;SDS011;73156;50.988;11.034;2023-12-22T13:01:56;15.73;;;8.70;;
83263;SDS011;73156;50.988;11.034;2023-12-22T13:04:22;15.05;;;8.98;;
83263;SDS011;73156;50.988;11.034;2023-12-22T13:06:48;16.35;;;9.25;;
83263;SDS011;73156;50.988;11.034;2023-12-22T13:09:14;20.67;;;9.00;;
83263;SDS011;73156;50.988;11.034;2023-12-22T13:11:41;16.65;;;9.57;;
83263;SDS011;73156;50.988;11.034;2023-12-22T13:14:08;17.35;;;9.25;;
83263;SDS011;73156;50.988;11.034;2023-12-22T13:16:34;19.92;;;9.40;;
83263;SDS011;73156;50.988;11.034;2023-12-22T13:18:59;16.15;;;8.93;;
83263;SDS011;73156;50.988;11.034;2023-12-22T13:21:26;16.83;;;8.57;;
83263;SDS011;73156;50.988;11.034;2023-12-22T13:26:38;17.55;;;8.70;;
83263;SDS011;73156;50.988;11.034;2023-12-22T13:29:07;15.82;;;8.70;;
83263;SDS011;73156;50.988;11.034;2023-12-22T13:31:35;16.27;;;9.30;;
83263;SDS011;73156;50.988;11.034;2023-12-22T13:34:02;14.40;;;8.70;;
83263;SDS011;73156;50.988;11.034;2023-12-22T13:36:28;14.20;;;8.73;;
83263;SDS011;73156;50.988;11.034;2023-12-22T13:38:58;16.90;;;8.82;;
83263;SDS011;73156;50.988;11.034;2023-12-22T13:41:24;15.90;;;8.82;;
83263;SDS011;73156;50.988;11.034;2023-12-22T13:43:49;14.52;;;8.88;;
83263;SDS011;73156;50.988;11.034;2023-12-22T13:46:14;16.23;;;8.90;;
83263;SDS011;73156;50.988;11.034;2023-12-22T13:48:40;19.02;;;9.70;;
83263;SDS011;73156;50.988;11.034;2023-12-22T13:51:05;17.38;;;9.15;;
83263;SDS011;73156;50.988;11.034;2023-12-22T13:53:31;14.90;;;8.88;;
83263;SDS011;73156;50.988;11.034;2023-12-22T13:55:57;15.88;;;9.05;;
83263;SDS011;73156;50.988;11.034;2023-12-22T13:58:25;14.63;;;8.77;;
83263;SDS011;73156;50.988;11.034;2023-12-22T14:00:52;12.23;;;7.93;;
83263;SDS011;73156;50.988;11.034;2023-12-22T14:03:18;16.20;;;8.48;;
83263;SDS011;73156;50.988;11.034;2023-12-22T14:05:49;12.98;;;8.25;;
83263;SDS011;73156;50.988;11.034;2023-12-22T14:08:15;17.25;;;8.95;;
83263;SDS011;73156;50.988;11.034;2023-12-22T14:10:44;16.20;;;9.30;;
83263;SDS011;73156;50.988;11.034;2023-12-22T14:13:11;15.45;;;8.90;;
83263;SDS011;73156;50.988;11.034;2023-12-22T14:15:36;14.30;;;8.70;;
83263;SDS011;73156;50.988;11.034;2023-12-22T14:18:02;19.10;;;8.93;;
83263;SDS011;73156;50.988;11.034;2023-12-22T14:20:27;13.10;;;8.27;;
83263;SDS011;73156;50.988;11.034;2023-12-22T14:22:53;16.43;;;8.90;;
83263;SDS011;73156;50.988;11.034;2023-12-22T14:25:18;16.33;;;8.83;;